sensor_id;sensor_type;location;lat;lon;timestamp;temperature;humidity
48535;DHT22;34323;52.022;5.686;2023-08-31T00:02:02;20.20;99.90
48535;DHT22;34323;52.022;5.686;2023-08-31T00:04:29;20.20;99.90
48535;DHT22;34323;52.022;5.686;2023-08-31T00:06:55;20.20;99.90
48535;DHT22;34323;52.022;5.686;2023-08-31T00:09:24;20.20;99.90
48535;DHT22;34323;52.022;5.686;2023-08-31T00:11:50;20.20;99.90
48535;DHT22;34323;52.022;5.686;2023-08-31T00:14:17;20.10;99.90
48535;DHT22;34323;52.022;5.686;2023-08-31T00:16:43;20.10;99.90
48535;DHT22;34323;52.022;5.686;2023-08-31T00:19:08;20.00;99.90
48535;DHT22;34323;52.022;5.686;2023-08-31T00:21:34;20.00;99.90
48535;DHT22;34323;52.022;5.686;2023-08-31T00:24:00;19.90;99.90
48535;DHT22;34323;52.022;5.686;2023-08-31T00:26:25;19.90;99.90
48535;DHT22;34323;52.022;5.686;2023-08-31T00:28:51;20.00;99.90
48535;DHT22;34323;52.022;5.686;2023-08-31T00:31:17;19.90;99.90
48535;DHT22;34323;52.022;5.686;2023-08-31T00:33:42;19.90;99.90
48535;DHT22;34323;52.022;5.686;2023-08-31T00:36:08;19.90;99.90
48535;DHT22;34323;52.022;5.686;2023-08-31T00:38:34;19.90;99.90
48535;DHT22;34323;52.022;5.686;2023-08-31T00:41:00;19.80;99.90
48535;DHT22;34323;52.022;5.686;2023-08-31T00:43:25;19.80;99.90
48535;DHT22;34323;52.022;5.686;2023-08-31T00:45:53;19.80;99.90
48535;DHT22;34323;52.022;5.686;2023-08-31T00:48:22;19.70;99.90
48535;DHT22;34323;52.022;5.686;2023-08-31T00:50:48;19.60;99.90
48535;DHT22;34323;52.022;5.686;2023-08-31T00:53:15;19.60;99.90
48535;DHT22;34323;52.022;5.686;2023-08-31T00:55:40;19.70;99.90
48535;DHT22;34323;52.022;5.686;2023-08-31T00:58:07;19.70;99.90
48535;DHT22;34323;52.022;5.686;2023-08-31T01:04:03;19.80;99.90
48535;DHT22;34323;52.022;5.686;2023-08-31T01:12:46;19.80;99.90
48535;DHT22;34323;52.022;5.686;2023-08-31T01:15:04;19.90;99.90
48535;DHT22;34323;52.022;5.686;2023-08-31T01:17:33;19.80;99.90
48535;DHT22;34323;52.022;5.686;2023-08-31T01:20:03;19.90;99.90
48535;DHT22;34323;52.022;5.686;2023-08-31T01:22:47;19.90;99.90
48535;DHT22;34323;52.022;5.686;2023-08-31T01:25:14;20.00;99.90
48535;DHT22;34323;52.022;5.686;2023-08-31T01:27:40;19.90;99.90
48535;DHT22;34323;52.022;5.686;2023-08-31T01:30:07;19.90;99.90
48535;DHT22;34323;52.022;5.686;2023-08-31T01:32:34;19.90;99.90
48535;DHT22;34323;52.022;5.686;2023-08-31T01:35:00;19.90;99.90
48535;DHT22;34323;52.022;5.686;2023-08-31T01:37:39;19.80;99.90
48535;DHT22;34323;52.022;5.686;2023-08-31T01:40:14;19.80;99.90
48535;DHT22;34323;52.022;5.686;2023-08-31T01:42:43;19.80;99.90
48535;DHT22;34323;52.022;5.686;2023-08-31T01:45:10;19.90;99.90
48535;DHT22;34323;52.022;5.686;2023-08-31T01:47:36;20.00;99.90
48535;DHT22;34323;52.022;5.686;2023-08-31T01:50:02;20.00;99.90
48535;DHT22;34323;52.022;5.686;2023-08-31T01:52:27;20.00;99.90
48535;DHT22;34323;52.022;5.686;2023-08-31T01:54:53;20.10;99.90
48535;DHT22;34323;52.022;5.686;2023-08-31T01:57:19;20.20;99.90
48535;DHT22;34323;52.022;5.686;2023-08-31T01:59:44;20.20;99.90
48535;DHT22;34323;52.022;5.686;2023-08-31T02:02:10;20.20;99.90
48535;DHT22;34323;52.022;5.686;2023-08-31T02:04:35;20.10;99.90
48535;DHT22;34323;52.022;5.686;2023-08-31T02:07:01;20.10;99.90
48535;DHT22;34323;52.022;5.686;2023-08-31T02:09:26;20.10;99.90
48535;DHT22;34323;52.022;5.686;2023-08-31T02:11:52;20.20;99.90
48535;DHT22;34323;52.022;5.686;2023-08-31T02:14:18;20.10;99.90
48535;DHT22;34323;52.022;5.686;2023-08-31T02:16:43;20.20;99.90
48535;DHT22;34323;52.022;5.686;2023-08-31T02:19:09;20.10;99.90
48535;DHT22;34323;52.022;5.686;2023-08-31T02:21:35;20.00;99.90
48535;DHT22;34323;52.022;5.686;2023-08-31T02:24:00;20.00;99.90
48535;DHT22;34323;52.022;5.686;2023-08-31T02:26:26;20.10;99.90
48535;DHT22;34323;52.022;5.686;2023-08-31T02:28:51;20.10;99.90
48535;DHT22;34323;52.022;5.686;2023-08-31T02:31:17;20.10;99.90
48535;DHT22;34323;52.022;5.686;2023-08-31T02:33:46;20.20;99.90
48535;DHT22;34323;52.022;5.686;2023-08-31T02:36:11;20.20;99.90
48535;DHT22;34323;52.022;5.686;2023-08-31T02:38:37;20.20;99.90
48535;DHT22;34323;52.022;5.686;2023-08-31T02:41:02;20.30;99.90
48535;DHT22;34323;52.022;5.686;2023-08-31T02:43:28;20.30;99.90
48535;DHT22;34323;52.022;5.686;2023-08-31T02:46:02;20.20;99.90
48535;DHT22;34323;52.022;5.686;2023-08-31T02:48:28;20.10;99.90
48535;DHT22;34323;52.022;5.686;2023-08-31T02:50:58;20.00;99.90
48535;DHT22;34323;52.022;5.686;2023-08-31T02:53:27;20.00;99.90
48535;DHT22;34323;52.022;5.686;2023-08-31T02:55:52;20.10;99.90
48535;DHT22;34323;52.022;5.686;2023-08-31T02:58:18;20.10;99.90
48535;DHT22;34323;52.022;5.686;2023-08-31T03:00:44;20.20;99.90
48535;DHT22;34323;52.022;5.686;2023-08-31T03:03:13;20.10;99.90
48535;DHT22;34323;52.022;5.686;2023-08-31T03:05:39;20.10;99.90
48535;DHT22;34323;52.022;5.686;2023-08-31T03:08:05;20.30;99.90
48535;DHT22;34323;52.022;5.686;2023-08-31T03:10:31;20.40;99.90
48535;DHT22;34323;52.022;5.686;2023-08-31T03:12:56;20.50;99.90
48535;DHT22;34323;52.022;5.686;2023-08-31T03:15:22;20.40;99.90
48535;DHT22;34323;52.022;5.686;2023-08-31T03:17:48;20.40;99.90
48535;DHT22;34323;52.022;5.686;2023-08-31T03:20:14;20.40;99.90
48535;DHT22;34323;52.022;5.686;2023-08-31T03:22:39;20.30;99.90
48535;DHT22;34323;52.022;5.686;2023-08-31T03:25:05;20.30;99.90
48535;DHT22;34323;52.022;5.686;2023-08-31T03:27:31;20.30;99.90
48535;DHT22;34323;52.022;5.686;2023-08-31T03:29:56;20.30;99.90
48535;DHT22;34323;52.022;5.686;2023-08-31T03:32:22;20.30;99.90
48535;DHT22;34323;52.022;5.686;2023-08-31T03:34:47;20.40;99.90
48535;DHT22;34323;52.022;5.686;2023-08-31T03:37:13;20.50;99.90
48535;DHT22;34323;52.022;5.686;2023-08-31T03:39:39;20.40;99.90
48535;DHT22;34323;52.022;5.686;2023-08-31T03:42:06;20.40;99.90
48535;DHT22;34323;52.022;5.686;2023-08-31T03:44:32;20.40;99.90
48535;DHT22;34323;52.022;5.686;2023-08-31T03:46:58;20.40;99.90
48535;DHT22;34323;52.022;5.686;2023-08-31T03:49:23;20.40;99.90
48535;DHT22;34323;52.022;5.686;2023-08-31T03:51:49;20.40;99.90
48535;DHT22;34323;52.022;5.686;2023-08-31T03:54:14;20.40;99.90
48535;DHT22;34323;52.022;5.686;2023-08-31T03:56:40;20.50;99.90
48535;DHT22;34323;52.022;5.686;2023-08-31T03:59:06;20.50;99.90
48535;DHT22;34323;52.022;5.686;2023-08-31T04:01:31;20.50;99.90
48535;DHT22;34323;52.022;5.686;2023-08-31T04:03:57;20.40;99.90
48535;DHT22;34323;52.022;5.686;2023-08-31T04:06:22;20.40;99.90
48535;DHT22;34323;52.022;5.686;2023-08-31T04:08:48;20.40;99.90
48535;DHT22;34323;52.022;5.686;2023-08-31T04:11:14;20.40;99.90
48535;DHT22;34323;52.022;5.686;2023-08-31T04:13:39;20.40;99.90
48535;DHT22;34323;52.022;5.686;2023-08-31T04:16:05;20.40;99.90
48535;DHT22;34323;52.022;5.686;2023-08-31T04:18:30;20.50;99.90
48535;DHT22;34323;52.022;5.686;2023-08-31T04:20:56;20.60;99.90
48535;DHT22;34323;52.022;5.686;2023-08-31T04:23:24;20.60;99.90
48535;DHT22;34323;52.022;5.686;2023-08-31T04:25:50;20.70;99.90
48535;DHT22;34323;52.022;5.686;2023-08-31T04:28:16;20.70;99.90
48535;DHT22;34323;52.022;5.686;2023-08-31T04:30:42;20.70;99.90
48535;DHT22;34323;52.022;5.686;2023-08-31T04:33:08;20.70;99.90
48535;DHT22;34323;52.022;5.686;2023-08-31T04:35:34;20.70;99.90
48535;DHT22;34323;52.022;5.686;2023-08-31T04:38:00;20.70;99.90
48535;DHT22;34323;52.022;5.686;2023-08-31T04:40:27;20.70;99.90
48535;DHT22;34323;52.022;5.686;2023-08-31T04:42:53;20.70;99.90
48535;DHT22;34323;52.022;5.686;2023-08-31T04:45:19;20.70;99.90
48535;DHT22;34323;52.022;5.686;2023-08-31T04:47:44;20.70;99.90
48535;DHT22;34323;52.022;5.686;2023-08-31T04:50:10;20.70;99.90
48535;DHT22;34323;52.022;5.686;2023-08-31T04:52:36;20.70;99.90
48535;DHT22;34323;52.022;5.686;2023-08-31T04:55:02;20.70;99.90
48535;DHT22;34323;52.022;5.686;2023-08-31T04:57:30;20.60;99.90
48535;DHT22;34323;52.022;5.686;2023-08-31T04:59:56;20.50;99.90
48535;DHT22;34323;52.022;5.686;2023-08-31T05:02:21;20.50;99.90
48535;DHT22;34323;52.022;5.686;2023-08-31T05:04:47;20.50;99.90
48535;DHT22;34323;52.022;5.686;2023-08-31T05:07:13;20.40;99.90
48535;DHT22;34323;52.022;5.686;2023-08-31T05:09:38;20.40;99.90
48535;DHT22;34323;52.022;5.686;2023-08-31T05:12:04;20.30;99.90
48535;DHT22;34323;52.022;5.686;2023-08-31T05:14:30;20.30;99.90
48535;DHT22;34323;52.022;5.686;2023-08-31T05:16:56;20.20;99.90
48535;DHT22;34323;52.022;5.686;2023-08-31T05:19:21;20.30;99.90
48535;DHT22;34323;52.022;5.686;2023-08-31T05:21:47;20.10;99.90
48535;DHT22;34323;52.022;5.686;2023-08-31T05:24:13;20.00;99.90
48535;DHT22;34323;52.022;5.686;2023-08-31T05:26:39;19.90;99.90
48535;DHT22;34323;52.022;5.686;2023-08-31T05:29:05;20.00;99.90
48535;DHT22;34323;52.022;5.686;2023-08-31T05:31:31;19.90;99.90
48535;DHT22;34323;52.022;5.686;2023-08-31T05:33:57;19.90;99.90
48535;DHT22;34323;52.022;5.686;2023-08-31T05:36:23;19.90;99.90
48535;DHT22;34323;52.022;5.686;2023-08-31T05:38:50;19.90;99.90
48535;DHT22;34323;52.022;5.686;2023-08-31T05:41:16;19.90;99.90
48535;DHT22;34323;52.022;5.686;2023-08-31T05:43:42;19.90;99.90
48535;DHT22;34323;52.022;5.686;2023-08-31T05:46:08;20.00;99.90
48535;DHT22;34323;52.022;5.686;2023-08-31T05:48:34;20.10;99.90
48535;DHT22;34323;52.022;5.686;2023-08-31T05:51:01;20.00;99.90
48535;DHT22;34323;52.022;5.686;2023-08-31T05:53:27;19.90;99.90
48535;DHT22;34323;52.022;5.686;2023-08-31T05:55:54;19.80;99.90
48535;DHT22;34323;52.022;5.686;2023-08-31T05:58:20;19.80;99.90
48535;DHT22;34323;52.022;5.686;2023-08-31T06:00:45;19.90;99.90
48535;DHT22;34323;52.022;5.686;2023-08-31T06:03:11;19.90;99.90
48535;DHT22;34323;52.022;5.686;2023-08-31T06:05:37;20.10;99.90
48535;DHT22;34323;52.022;5.686;2023-08-31T06:08:04;20.10;99.90
48535;DHT22;34323;52.022;5.686;2023-08-31T06:10:29;20.10;99.90
48535;DHT22;34323;52.022;5.686;2023-08-31T06:12:55;20.20;99.90
48535;DHT22;34323;52.022;5.686;2023-08-31T06:15:20;20.30;99.90
48535;DHT22;34323;52.022;5.686;2023-08-31T06:17:46;20.30;99.90
48535;DHT22;34323;52.022;5.686;2023-08-31T06:20:11;20.20;99.90
48535;DHT22;34323;52.022;5.686;2023-08-31T06:22:37;20.30;99.90
48535;DHT22;34323;52.022;5.686;2023-08-31T06:25:03;20.40;99.90
48535;DHT22;34323;52.022;5.686;2023-08-31T06:27:29;20.40;99.90
48535;DHT22;34323;52.022;5.686;2023-08-31T06:29:55;20.40;99.90
48535;DHT22;34323;52.022;5.686;2023-08-31T06:32:21;20.60;99.90
48535;DHT22;34323;52.022;5.686;2023-08-31T06:34:47;20.70;99.90
48535;DHT22;34323;52.022;5.686;2023-08-31T06:37:12;20.70;99.90
48535;DHT22;34323;52.022;5.686;2023-08-31T06:39:38;20.60;99.90
48535;DHT22;34323;52.022;5.686;2023-08-31T06:42:04;20.60;99.90
48535;DHT22;34323;52.022;5.686;2023-08-31T06:44:30;20.60;99.90
48535;DHT22;34323;52.022;5.686;2023-08-31T06:46:56;20.50;99.90
48535;DHT22;34323;52.022;5.686;2023-08-31T06:49:22;20.50;99.90
48535;DHT22;34323;52.022;5.686;2023-08-31T06:51:49;20.50;99.90
48535;DHT22;34323;52.022;5.686;2023-08-31T06:54:14;20.70;99.90
48535;DHT22;34323;52.022;5.686;2023-08-31T06:56:40;20.70;99.90
48535;DHT22;34323;52.022;5.686;2023-08-31T06:59:06;20.70;99.90
48535;DHT22;34323;52.022;5.686;2023-08-31T07:01:31;20.50;99.90
48535;DHT22;34323;52.022;5.686;2023-08-31T07:03:58;20.30;99.90
48535;DHT22;34323;52.022;5.686;2023-08-31T07:06:23;20.30;99.90
48535;DHT22;34323;52.022;5.686;2023-08-31T07:08:49;20.40;99.90
48535;DHT22;34323;52.022;5.686;2023-08-31T07:11:15;20.40;99.90
48535;DHT22;34323;52.022;5.686;2023-08-31T07:13:41;20.20;99.90
48535;DHT22;34323;52.022;5.686;2023-08-31T07:16:07;20.10;99.90
48535;DHT22;34323;52.022;5.686;2023-08-31T07:18:33;20.00;99.90
48535;DHT22;34323;52.022;5.686;2023-08-31T07:20:58;20.10;99.90
48535;DHT22;34323;52.022;5.686;2023-08-31T07:23:25;20.40;99.90
48535;DHT22;34323;52.022;5.686;2023-08-31T07:25:50;20.60;99.90
48535;DHT22;34323;52.022;5.686;2023-08-31T07:28:16;20.60;99.90
48535;DHT22;34323;52.022;5.686;2023-08-31T07:30:42;20.70;99.90
48535;DHT22;34323;52.022;5.686;2023-08-31T07:33:07;20.80;99.90
48535;DHT22;34323;52.022;5.686;2023-08-31T07:35:33;21.00;99.90
48535;DHT22;34323;52.022;5.686;2023-08-31T07:37:58;21.10;99.90
48535;DHT22;34323;52.022;5.686;2023-08-31T07:40:24;21.00;99.90
48535;DHT22;34323;52.022;5.686;2023-08-31T07:42:50;20.80;99.90
48535;DHT22;34323;52.022;5.686;2023-08-31T07:45:16;20.60;99.90
48535;DHT22;34323;52.022;5.686;2023-08-31T07:47:42;20.40;99.90
48535;DHT22;34323;52.022;5.686;2023-08-31T07:50:08;20.40;99.90
48535;DHT22;34323;52.022;5.686;2023-08-31T07:52:34;20.50;99.90
48535;DHT22;34323;52.022;5.686;2023-08-31T07:55:00;20.60;99.90
48535;DHT22;34323;52.022;5.686;2023-08-31T07:57:25;20.70;99.90
48535;DHT22;34323;52.022;5.686;2023-08-31T07:59:51;20.80;99.90
48535;DHT22;34323;52.022;5.686;2023-08-31T08:02:16;20.80;99.90
48535;DHT22;34323;52.022;5.686;2023-08-31T08:04:42;20.90;99.90
48535;DHT22;34323;52.022;5.686;2023-08-31T08:07:08;21.00;99.90
48535;DHT22;34323;52.022;5.686;2023-08-31T08:09:34;21.10;99.90
48535;DHT22;34323;52.022;5.686;2023-08-31T08:12:00;21.20;99.90
48535;DHT22;34323;52.022;5.686;2023-08-31T08:14:26;21.20;99.90
48535;DHT22;34323;52.022;5.686;2023-08-31T08:16:51;21.30;99.90
48535;DHT22;34323;52.022;5.686;2023-08-31T08:19:24;21.50;99.90
48535;DHT22;34323;52.022;5.686;2023-08-31T08:21:50;21.70;99.90
48535;DHT22;34323;52.022;5.686;2023-08-31T08:24:16;21.70;99.90
48535;DHT22;34323;52.022;5.686;2023-08-31T08:26:42;21.40;99.90
48535;DHT22;34323;52.022;5.686;2023-08-31T08:29:07;21.60;99.90
48535;DHT22;34323;52.022;5.686;2023-08-31T08:31:33;21.50;99.90
48535;DHT22;34323;52.022;5.686;2023-08-31T08:33:58;21.60;99.90
48535;DHT22;34323;52.022;5.686;2023-08-31T08:36:24;21.80;99.90
48535;DHT22;34323;52.022;5.686;2023-08-31T08:38:49;21.90;99.90
48535;DHT22;34323;52.022;5.686;2023-08-31T08:41:16;21.90;99.90
48535;DHT22;34323;52.022;5.686;2023-08-31T08:43:47;21.80;99.90
48535;DHT22;34323;52.022;5.686;2023-08-31T08:46:13;21.70;99.90
48535;DHT22;34323;52.022;5.686;2023-08-31T08:48:39;21.90;99.90
48535;DHT22;34323;52.022;5.686;2023-08-31T08:51:06;22.10;99.90
48535;DHT22;34323;52.022;5.686;2023-08-31T08:53:33;22.20;99.90
48535;DHT22;34323;52.022;5.686;2023-08-31T08:55:58;22.30;99.90
48535;DHT22;34323;52.022;5.686;2023-08-31T08:58:24;22.30;99.90
48535;DHT22;34323;52.022;5.686;2023-08-31T09:00:51;22.20;99.90
48535;DHT22;34323;52.022;5.686;2023-08-31T09:03:17;22.30;99.90
48535;DHT22;34323;52.022;5.686;2023-08-31T09:05:42;22.10;99.90
48535;DHT22;34323;52.022;5.686;2023-08-31T09:08:09;22.10;99.90
48535;DHT22;34323;52.022;5.686;2023-08-31T09:10:44;22.10;99.90
48535;DHT22;34323;52.022;5.686;2023-08-31T09:13:11;22.20;99.90
48535;DHT22;34323;52.022;5.686;2023-08-31T09:15:45;22.40;99.90
48535;DHT22;34323;52.022;5.686;2023-08-31T09:18:31;22.60;99.90
48535;DHT22;34323;52.022;5.686;2023-08-31T09:20:58;22.60;99.90
48535;DHT22;34323;52.022;5.686;2023-08-31T09:23:24;22.70;99.90
48535;DHT22;34323;52.022;5.686;2023-08-31T09:25:54;22.80;99.90
48535;DHT22;34323;52.022;5.686;2023-08-31T09:28:22;22.90;99.90
48535;DHT22;34323;52.022;5.686;2023-08-31T09:30:49;22.90;99.90
48535;DHT22;34323;52.022;5.686;2023-08-31T09:33:16;22.60;99.90
48535;DHT22;34323;52.022;5.686;2023-08-31T09:35:54;22.80;99.90
48535;DHT22;34323;52.022;5.686;2023-08-31T09:38:21;23.10;99.90
48535;DHT22;34323;52.022;5.686;2023-08-31T09:40:46;23.20;99.90
48535;DHT22;34323;52.022;5.686;2023-08-31T09:43:12;23.40;99.90
48535;DHT22;34323;52.022;5.686;2023-08-31T09:45:43;23.50;99.90
48535;DHT22;34323;52.022;5.686;2023-08-31T09:48:09;23.40;99.90
48535;DHT22;34323;52.022;5.686;2023-08-31T09:50:35;23.30;99.90
48535;DHT22;34323;52.022;5.686;2023-08-31T09:53:03;23.10;99.90
48535;DHT22;34323;52.022;5.686;2023-08-31T09:55:31;23.00;99.90
48535;DHT22;34323;52.022;5.686;2023-08-31T09:57:59;23.10;99.90
48535;DHT22;34323;52.022;5.686;2023-08-31T10:00:32;23.20;99.90
48535;DHT22;34323;52.022;5.686;2023-08-31T10:03:03;23.30;99.90
48535;DHT22;34323;52.022;5.686;2023-08-31T10:05:29;23.30;99.90
48535;DHT22;34323;52.022;5.686;2023-08-31T10:07:55;23.40;99.90
48535;DHT22;34323;52.022;5.686;2023-08-31T10:10:21;23.30;99.90
48535;DHT22;34323;52.022;5.686;2023-08-31T10:12:50;23.10;99.90
48535;DHT22;34323;52.022;5.686;2023-08-31T10:15:17;23.10;99.90
48535;DHT22;34323;52.022;5.686;2023-08-31T10:17:44;23.10;99.90
48535;DHT22;34323;52.022;5.686;2023-08-31T10:20:11;23.00;99.90
48535;DHT22;34323;52.022;5.686;2023-08-31T10:22:38;23.10;99.90
48535;DHT22;34323;52.022;5.686;2023-08-31T10:25:05;23.30;99.90
48535;DHT22;34323;52.022;5.686;2023-08-31T10:27:43;23.50;99.90
48535;DHT22;34323;52.022;5.686;2023-08-31T10:30:32;23.60;99.90
48535;DHT22;34323;52.022;5.686;2023-08-31T10:38:14;24.20;99.90
48535;DHT22;34323;52.022;5.686;2023-08-31T10:40:40;24.40;99.90
48535;DHT22;34323;52.022;5.686;2023-08-31T10:43:15;24.70;99.90
48535;DHT22;34323;52.022;5.686;2023-08-31T10:45:44;24.90;99.90
48535;DHT22;34323;52.022;5.686;2023-08-31T10:48:10;25.10;99.90
48535;DHT22;34323;52.022;5.686;2023-08-31T10:50:42;25.20;99.90
48535;DHT22;34323;52.022;5.686;2023-08-31T10:53:10;24.80;99.90
48535;DHT22;34323;52.022;5.686;2023-08-31T10:55:50;24.50;99.90
48535;DHT22;34323;52.022;5.686;2023-08-31T10:58:17;24.60;99.90
48535;DHT22;34323;52.022;5.686;2023-08-31T11:00:52;24.70;99.90
48535;DHT22;34323;52.022;5.686;2023-08-31T11:03:18;24.70;99.90
48535;DHT22;34323;52.022;5.686;2023-08-31T11:05:54;24.80;99.90
48535;DHT22;34323;52.022;5.686;2023-08-31T11:08:23;25.00;99.90
48535;DHT22;34323;52.022;5.686;2023-08-31T11:10:49;25.10;99.90
48535;DHT22;34323;52.022;5.686;2023-08-31T11:13:21;25.00;99.90
48535;DHT22;34323;52.022;5.686;2023-08-31T11:15:48;24.80;99.90
48535;DHT22;34323;52.022;5.686;2023-08-31T11:18:15;24.90;99.90
48535;DHT22;34323;52.022;5.686;2023-08-31T11:20:43;25.00;99.90
48535;DHT22;34323;52.022;5.686;2023-08-31T11:23:09;25.30;99.90
48535;DHT22;34323;52.022;5.686;2023-08-31T11:25:35;25.20;99.90
48535;DHT22;34323;52.022;5.686;2023-08-31T11:28:06;25.00;99.90
48535;DHT22;34323;52.022;5.686;2023-08-31T11:30:35;25.20;99.90
48535;DHT22;34323;52.022;5.686;2023-08-31T11:33:03;25.30;99.90
48535;DHT22;34323;52.022;5.686;2023-08-31T11:35:35;25.50;99.90
48535;DHT22;34323;52.022;5.686;2023-08-31T11:38:02;25.40;99.90
48535;DHT22;34323;52.022;5.686;2023-08-31T11:40:28;25.70;99.90
48535;DHT22;34323;52.022;5.686;2023-08-31T11:42:54;25.70;99.90
48535;DHT22;34323;52.022;5.686;2023-08-31T11:45:22;25.70;99.90
48535;DHT22;34323;52.022;5.686;2023-08-31T11:47:48;25.80;99.90
48535;DHT22;34323;52.022;5.686;2023-08-31T11:50:16;25.90;99.90
48535;DHT22;34323;52.022;5.686;2023-08-31T11:52:42;26.20;99.90
48535;DHT22;34323;52.022;5.686;2023-08-31T11:55:12;26.50;99.90
48535;DHT22;34323;52.022;5.686;2023-08-31T11:57:38;26.50;99.90
48535;DHT22;34323;52.022;5.686;2023-08-31T12:00:04;26.50;99.90
48535;DHT22;34323;52.022;5.686;2023-08-31T12:02:40;26.50;99.90
48535;DHT22;34323;52.022;5.686;2023-08-31T12:05:06;26.50;99.90
48535;DHT22;34323;52.022;5.686;2023-08-31T12:07:31;26.60;99.90
48535;DHT22;34323;52.022;5.686;2023-08-31T12:10:03;26.70;99.90
48535;DHT22;34323;52.022;5.686;2023-08-31T12:12:30;26.80;99.90
48535;DHT22;34323;52.022;5.686;2023-08-31T12:14:59;26.80;99.90
48535;DHT22;34323;52.022;5.686;2023-08-31T12:17:29;27.00;99.90
48535;DHT22;34323;52.022;5.686;2023-08-31T12:20:02;26.90;99.90
48535;DHT22;34323;52.022;5.686;2023-08-31T12:22:30;26.90;99.90
48535;DHT22;34323;52.022;5.686;2023-08-31T12:24:56;27.00;99.90
48535;DHT22;34323;52.022;5.686;2023-08-31T12:27:21;27.10;99.90
48535;DHT22;34323;52.022;5.686;2023-08-31T12:29:47;27.30;99.90
48535;DHT22;34323;52.022;5.686;2023-08-31T12:32:12;27.40;99.90
48535;DHT22;34323;52.022;5.686;2023-08-31T12:34:38;27.50;99.90
48535;DHT22;34323;52.022;5.686;2023-08-31T12:37:03;27.30;99.90
48535;DHT22;34323;52.022;5.686;2023-08-31T12:39:30;27.30;99.90
48535;DHT22;34323;52.022;5.686;2023-08-31T12:41:56;27.20;99.90
48535;DHT22;34323;52.022;5.686;2023-08-31T12:44:21;27.40;99.90
48535;DHT22;34323;52.022;5.686;2023-08-31T12:46:47;27.30;99.90
48535;DHT22;34323;52.022;5.686;2023-08-31T12:49:13;27.20;99.90
48535;DHT22;34323;52.022;5.686;2023-08-31T12:51:38;27.00;99.90
48535;DHT22;34323;52.022;5.686;2023-08-31T12:54:04;27.00;99.90
48535;DHT22;34323;52.022;5.686;2023-08-31T12:56:29;27.10;99.90
48535;DHT22;34323;52.022;5.686;2023-08-31T12:58:55;27.00;99.90
48535;DHT22;34323;52.022;5.686;2023-08-31T13:01:21;27.00;99.90
48535;DHT22;34323;52.022;5.686;2023-08-31T13:03:48;27.20;99.90
48535;DHT22;34323;52.022;5.686;2023-08-31T13:06:14;27.40;99.90
48535;DHT22;34323;52.022;5.686;2023-08-31T13:08:42;27.50;99.90
48535;DHT22;34323;52.022;5.686;2023-08-31T13:11:08;27.40;99.90
48535;DHT22;34323;52.022;5.686;2023-08-31T13:13:34;27.40;99.90
48535;DHT22;34323;52.022;5.686;2023-08-31T13:16:00;27.50;99.90
48535;DHT22;34323;52.022;5.686;2023-08-31T13:18:25;27.70;99.90
48535;DHT22;34323;52.022;5.686;2023-08-31T13:20:52;27.80;99.90
48535;DHT22;34323;52.022;5.686;2023-08-31T13:23:18;27.60;99.90
48535;DHT22;34323;52.022;5.686;2023-08-31T13:25:44;27.70;99.90
48535;DHT22;34323;52.022;5.686;2023-08-31T13:28:10;28.20;99.90
48535;DHT22;34323;52.022;5.686;2023-08-31T13:30:35;28.90;99.90
48535;DHT22;34323;52.022;5.686;2023-08-31T13:33:01;29.80;99.90
48535;DHT22;34323;52.022;5.686;2023-08-31T13:35:27;30.60;99.90
48535;DHT22;34323;52.022;5.686;2023-08-31T13:37:52;31.60;99.90
48535;DHT22;34323;52.022;5.686;2023-08-31T13:40:18;32.50;99.90
48535;DHT22;34323;52.022;5.686;2023-08-31T13:42:55;33.30;99.90
48535;DHT22;34323;52.022;5.686;2023-08-31T13:45:22;34.20;99.90
48535;DHT22;34323;52.022;5.686;2023-08-31T13:47:48;35.00;99.60
48535;DHT22;34323;52.022;5.686;2023-08-31T13:50:18;36.00;99.20
48535;DHT22;34323;52.022;5.686;2023-08-31T13:52:44;36.90;98.50
48535;DHT22;34323;52.022;5.686;2023-08-31T13:55:09;37.20;97.90
48535;DHT22;34323;52.022;5.686;2023-08-31T13:57:35;37.60;97.60
48535;DHT22;34323;52.022;5.686;2023-08-31T14:00:01;37.90;96.90
48535;DHT22;34323;52.022;5.686;2023-08-31T14:02:26;38.30;97.10
48535;DHT22;34323;52.022;5.686;2023-08-31T14:04:53;39.30;96.50
48535;DHT22;34323;52.022;5.686;2023-08-31T14:07:19;39.50;96.30
48535;DHT22;34323;52.022;5.686;2023-08-31T14:09:45;39.20;95.00
48535;DHT22;34323;52.022;5.686;2023-08-31T14:12:10;38.90;95.70
48535;DHT22;34323;52.022;5.686;2023-08-31T14:14:36;38.30;95.30
48535;DHT22;34323;52.022;5.686;2023-08-31T14:17:02;37.20;94.50
48535;DHT22;34323;52.022;5.686;2023-08-31T14:19:29;36.50;95.60
48535;DHT22;34323;52.022;5.686;2023-08-31T14:21:54;36.00;95.60
48535;DHT22;34323;52.022;5.686;2023-08-31T14:24:20;35.90;95.90
48535;DHT22;34323;52.022;5.686;2023-08-31T14:26:45;35.80;95.70
48535;DHT22;34323;52.022;5.686;2023-08-31T14:29:11;35.70;96.20
48535;DHT22;34323;52.022;5.686;2023-08-31T14:31:37;35.10;95.30
48535;DHT22;34323;52.022;5.686;2023-08-31T14:34:03;34.60;96.00
48535;DHT22;34323;52.022;5.686;2023-08-31T14:36:29;35.10;95.70
48535;DHT22;34323;52.022;5.686;2023-08-31T14:38:54;36.10;95.90
48535;DHT22;34323;52.022;5.686;2023-08-31T14:41:20;36.90;95.50
48535;DHT22;34323;52.022;5.686;2023-08-31T14:43:46;37.50;95.10
48535;DHT22;34323;52.022;5.686;2023-08-31T14:46:11;37.60;95.20
48535;DHT22;34323;52.022;5.686;2023-08-31T14:48:37;37.50;94.80
48535;DHT22;34323;52.022;5.686;2023-08-31T14:51:03;37.10;95.50
48535;DHT22;34323;52.022;5.686;2023-08-31T14:53:28;36.90;94.90
48535;DHT22;34323;52.022;5.686;2023-08-31T14:55:54;36.70;94.70
48535;DHT22;34323;52.022;5.686;2023-08-31T14:58:19;36.10;95.00
48535;DHT22;34323;52.022;5.686;2023-08-31T15:00:45;35.20;95.00
48535;DHT22;34323;52.022;5.686;2023-08-31T15:03:11;34.60;95.50
48535;DHT22;34323;52.022;5.686;2023-08-31T15:05:37;33.60;95.90
48535;DHT22;34323;52.022;5.686;2023-08-31T15:08:06;33.20;96.10
48535;DHT22;34323;52.022;5.686;2023-08-31T15:10:32;33.10;96.30
48535;DHT22;34323;52.022;5.686;2023-08-31T15:12:58;32.70;95.80
48535;DHT22;34323;52.022;5.686;2023-08-31T15:15:26;32.50;96.30
48535;DHT22;34323;52.022;5.686;2023-08-31T15:17:51;32.80;97.10
48535;DHT22;34323;52.022;5.686;2023-08-31T15:20:17;33.30;97.10
48535;DHT22;34323;52.022;5.686;2023-08-31T15:22:43;33.80;96.10
48535;DHT22;34323;52.022;5.686;2023-08-31T15:25:09;34.00;96.40
48535;DHT22;34323;52.022;5.686;2023-08-31T15:27:34;33.80;96.50
48535;DHT22;34323;52.022;5.686;2023-08-31T15:30:00;33.30;96.00
48535;DHT22;34323;52.022;5.686;2023-08-31T15:32:26;32.80;95.80
48535;DHT22;34323;52.022;5.686;2023-08-31T15:34:51;32.80;96.40
48535;DHT22;34323;52.022;5.686;2023-08-31T15:37:17;32.60;96.60
48535;DHT22;34323;52.022;5.686;2023-08-31T15:39:43;32.50;96.40
48535;DHT22;34323;52.022;5.686;2023-08-31T15:42:08;32.50;96.10